Terminal Aerodrome Forecast
Issued by NWS

Home | Current Version | Previous Version | Text Only | Print | Product List | Glossary On
Versions: 1 2 3 4 5 6 7 8 9 10 11 12 13 14 15 16
000
FTUS44 KHGX 232350 RRA
TAFLBX
TAF
KLBX 232350Z 2400/2424 16011KT P6SM SKC
     FM240200 16008KT P6SM SKC
     FM240900 18004KT 4SM BR BKN010
      TEMPO 2410/2412 2SM BR OVC005
     FM241300 20008KT 4SM BR SCT010
     FM241500 22009KT P6SM SKC
     FM242200 32008G14KT P6SM FEW250=

USA.gov is the U.S. government's official web portal to all federal, state and local government web resources and services.